createdAt,value
2022-11-29T00:00:16.953Z,-3.23
2022-11-29T00:05:38.873Z,-3.27
2022-11-29T00:10:40.792Z,-3.25
2022-11-29T00:15:44.076Z,-3.40
2022-11-29T00:20:45.955Z,-3.37
2022-11-29T00:25:47.897Z,-3.37
2022-11-29T00:30:51.144Z,-3.38
2022-11-29T00:35:53.198Z,-3.33
2022-11-29T00:40:55.207Z,-3.34
2022-11-29T00:45:58.517Z,-3.09
2022-11-29T00:51:00.814Z,-3.09
2022-11-29T00:56:03.725Z,-3.23
2022-11-29T01:01:07.102Z,-3.19
2022-11-29T01:06:11.745Z,-3.25
2022-11-29T01:11:16.257Z,-3.32
2022-11-29T01:16:20.007Z,-3.27
2022-11-29T01:21:24.120Z,-3.25
2022-11-29T01:26:28.035Z,-3.38
2022-11-29T01:31:35.994Z,-3.46
2022-11-29T01:36:37.985Z,-3.55
2022-11-29T01:41:40.048Z,-3.40
2022-11-29T01:46:44.894Z,-3.19
2022-11-29T01:51:50.439Z,-3.27
2022-11-29T01:56:53.122Z,-3.15
2022-11-29T02:02:03.967Z,-3.26
2022-11-29T02:07:05.967Z,-3.16
2022-11-29T02:12:21.182Z,-3.10
2022-11-29T02:17:33.103Z,-3.29
2022-11-29T02:22:41.599Z,-3.43
2022-11-29T02:28:21.620Z,-3.43
2022-11-29T02:33:50.333Z,-3.32
2022-11-29T02:39:07.943Z,-3.32
2022-11-29T02:44:32.216Z,-3.31
2022-11-29T02:49:53.598Z,-3.53
2022-11-29T02:55:04.417Z,-3.46
2022-11-29T03:00:07.808Z,-3.59
2022-11-29T03:05:18.607Z,-3.44
2022-11-29T03:10:24.882Z,-3.52
2022-11-29T03:15:31.155Z,-3.50
2022-11-29T03:20:45.114Z,-3.53
2022-11-29T03:25:53.507Z,-3.56
2022-11-29T03:31:01.437Z,-3.39
2022-11-29T03:36:11.847Z,-3.48
2022-11-29T03:41:23.403Z,-3.35
2022-11-29T03:46:34.917Z,-3.50
2022-11-29T03:51:49.663Z,-3.15
2022-11-29T03:56:52.286Z,-3.07
2022-11-29T04:02:12.803Z,-3.32
2022-11-29T04:07:33.878Z,-3.60
2022-11-29T04:12:58.086Z,-3.51
2022-11-29T04:18:25.867Z,-3.75
2022-11-29T04:23:48.514Z,-3.73
2022-11-29T04:29:15.420Z,-3.71
2022-11-29T04:34:34.370Z,-3.81
2022-11-29T04:39:56.255Z,-2.85
2022-11-29T04:45:22.928Z,-3.06
2022-11-29T04:50:40.387Z,-3.21
2022-11-29T04:55:51.072Z,-3.29
2022-11-29T05:00:59.571Z,-3.19
2022-11-29T05:06:19.716Z,-3.00
2022-11-29T05:11:34.455Z,-3.12
2022-11-29T05:16:48.903Z,-3.06
2022-11-29T05:22:00.985Z,-2.76
2022-11-29T05:27:14.150Z,-2.61
2022-11-29T05:32:28.537Z,-2.76
2022-11-29T05:37:43.154Z,-2.32
2022-11-29T05:43:05.423Z,-2.71
2022-11-29T05:48:17.599Z,-2.89
2022-11-29T05:53:24.673Z,-2.91
2022-11-29T05:58:46.381Z,-2.76
2022-11-29T06:03:56.653Z,-2.90
2022-11-29T06:09:06.247Z,-2.71
2022-11-29T06:14:20.086Z,-2.09
2022-11-29T06:19:37.524Z,-2.09
2022-11-29T06:24:50.461Z,-2.47
2022-11-29T06:30:02.327Z,-2.58
2022-11-29T06:35:11.217Z,-2.45
2022-11-29T06:40:15.879Z,-2.63
2022-11-29T06:45:21.765Z,-2.73
2022-11-29T06:50:38.293Z,-2.71
2022-11-29T06:55:48.677Z,-2.55
2022-11-29T07:01:00.686Z,-2.54
2022-11-29T07:06:10.143Z,-2.70
2022-11-29T07:11:14.204Z,-2.59
2022-11-29T07:16:25.841Z,-2.46
2022-11-29T07:21:44.158Z,-2.13
2022-11-29T07:26:59.606Z,-2.33
2022-11-29T07:32:12.836Z,-1.64
2022-11-29T07:37:24.315Z,-1.41
2022-11-29T07:42:37.724Z,-1.40
2022-11-29T07:47:41.018Z,-1.21
2022-11-29T07:52:46.210Z,-0.89
2022-11-29T07:57:49.159Z,-0.38
2022-11-29T08:02:52.457Z,-0.10
2022-11-29T08:07:55.881Z,0.10
2022-11-29T08:12:57.882Z,0.22
2022-11-29T08:18:01.838Z,0.40
2022-11-29T08:23:03.871Z,0.74
2022-11-29T08:28:06.207Z,0.90
2022-11-29T08:33:09.465Z,1.18
2022-11-29T08:38:11.371Z,1.47
2022-11-29T08:43:13.371Z,1.54
2022-11-29T08:48:16.616Z,1.64
2022-11-29T08:53:37.288Z,1.67
2022-11-29T08:58:40.167Z,2.00
2022-11-29T09:03:59.955Z,2.20
2022-11-29T09:09:01.971Z,2.52
2022-11-29T09:14:06.362Z,2.61
2022-11-29T09:19:10.157Z,3.11
2022-11-29T09:24:12.085Z,3.21
2022-11-29T09:29:15.910Z,3.42
2022-11-29T09:34:19.077Z,3.93
2022-11-29T09:39:21.072Z,4.16
2022-11-29T09:44:38.348Z,4.23
2022-11-29T09:49:52.049Z,3.85
2022-11-29T09:55:04.062Z,3.96
2022-11-29T10:00:15.713Z,3.99
2022-11-29T10:05:24.115Z,4.15
2022-11-29T10:10:31.016Z,4.09
2022-11-29T10:15:38.561Z,4.12
2022-11-29T10:20:48.795Z,4.23
2022-11-29T10:25:53.724Z,4.31
2022-11-29T10:31:16.293Z,4.40
2022-11-29T10:36:23.833Z,4.55
2022-11-29T10:41:26.865Z,4.50
2022-11-29T10:46:33.031Z,4.52
2022-11-29T10:51:36.740Z,4.39
2022-11-29T10:56:39.361Z,4.49
2022-11-29T11:01:43.111Z,4.43
2022-11-29T11:06:51.424Z,4.75
2022-11-29T11:11:55.654Z,5.17
2022-11-29T11:17:15.413Z,5.38
2022-11-29T11:22:23.148Z,5.28
2022-11-29T11:27:34.026Z,5.36
2022-11-29T11:32:36.952Z,5.25
2022-11-29T11:37:40.255Z,5.15
2022-11-29T11:42:44.154Z,5.37
2022-11-29T11:47:49.189Z,5.47
2022-11-29T11:52:55.698Z,5.41
2022-11-29T11:58:03.321Z,5.28
2022-11-29T12:03:24.897Z,5.44
2022-11-29T12:08:29.667Z,5.30
2022-11-29T12:13:35.711Z,5.20
2022-11-29T12:18:44.113Z,5.13
2022-11-29T12:23:53.158Z,5.52
2022-11-29T12:28:55.176Z,5.69
2022-11-29T12:34:10.013Z,5.61
2022-11-29T12:39:26.690Z,5.58
2022-11-29T12:44:39.500Z,5.52
2022-11-29T12:50:04.790Z,5.41
2022-11-29T12:55:19.745Z,5.47
2022-11-29T13:00:22.697Z,5.33
2022-11-29T13:05:43.406Z,4.93
2022-11-29T13:10:58.048Z,4.36
2022-11-29T13:16:05.845Z,4.20
2022-11-29T13:21:13.635Z,3.82
2022-11-29T13:26:18.636Z,3.46
2022-11-29T13:31:22.627Z,3.17
2022-11-29T13:36:34.457Z,3.10
2022-11-29T13:41:45.699Z,2.80
2022-11-29T13:46:57.548Z,2.43
2022-11-29T13:52:05.219Z,2.15
2022-11-29T13:57:09.961Z,1.99
2022-11-29T14:02:28.235Z,1.54
2022-11-29T14:07:30.279Z,1.41
2022-11-29T14:12:38.367Z,1.19
2022-11-29T14:17:50.449Z,0.99
2022-11-29T14:23:13.940Z,0.77
2022-11-29T14:28:41.393Z,0.51
2022-11-29T14:34:01.121Z,0.19
2022-11-29T14:39:20.343Z,-0.08
2022-11-29T15:10:57.097Z,-1.10
2022-11-29T15:16:14.342Z,-1.22
2022-11-29T15:21:31.068Z,-0.97
2022-11-29T15:26:34.795Z,-1.05
2022-11-29T15:31:37.295Z,-1.18
2022-11-29T15:36:43.174Z,-1.11
2022-11-29T15:41:46.474Z,-1.16
2022-11-29T15:46:48.546Z,-1.17
2022-11-29T15:51:55.892Z,-1.21
2022-11-29T15:57:02.478Z,-1.53
2022-11-29T16:02:15.702Z,-1.34
2022-11-29T16:07:20.391Z,-1.23
2022-11-29T16:12:24.842Z,-1.23
2022-11-29T16:17:28.863Z,-1.23
2022-11-29T16:22:32.141Z,-1.38
2022-11-29T16:27:36.356Z,-1.52
2022-11-29T16:32:42.345Z,-1.41
2022-11-29T16:37:46.195Z,-1.53
2022-11-29T16:43:06.439Z,-1.31
2022-11-29T16:48:28.728Z,-1.00
2022-11-29T16:53:35.823Z,-1.16
2022-11-29T16:59:25.064Z,-1.43
2022-11-29T17:04:01.972Z,-1.53
2022-11-29T17:09:04.638Z,-1.30
2022-11-29T17:14:08.219Z,-1.34
2022-11-29T17:19:12.601Z,-1.49
2022-11-29T17:24:17.276Z,-1.64
2022-11-29T17:29:20.653Z,-1.65
2022-11-29T17:34:22.776Z,-1.28
2022-11-29T17:39:24.725Z,-1.23
2022-11-29T17:44:27.985Z,-1.60
2022-11-29T17:49:30.100Z,-2.06
2022-11-29T17:54:35.993Z,-2.40
2022-11-29T17:59:39.289Z,-2.32
2022-11-29T18:04:42.621Z,-2.47
2022-11-29T18:09:45.910Z,-2.27
2022-11-29T18:14:50.843Z,-2.27
2022-11-29T18:19:52.806Z,-2.64
2022-11-29T18:25:05.387Z,-2.47
2022-11-29T18:30:18.269Z,-2.37
2022-11-29T18:35:20.210Z,-2.70
2022-11-29T18:40:22.924Z,-2.66
2022-11-29T18:45:26.356Z,-2.58
2022-11-29T18:50:28.276Z,-2.54
2022-11-29T18:55:30.207Z,-2.53
2022-11-29T19:00:33.798Z,-2.34
2022-11-29T19:05:35.761Z,-2.69
2022-11-29T19:10:38.484Z,-2.64
2022-11-29T19:15:41.869Z,-2.68
2022-11-29T19:20:43.854Z,-2.79
2022-11-29T19:25:45.931Z,-2.88
2022-11-29T19:30:54.995Z,-2.84
2022-11-29T19:35:57.027Z,-2.81
2022-11-29T19:40:59.082Z,-2.97
2022-11-29T19:46:08.408Z,-2.98
2022-11-29T19:51:11.870Z,-2.94
2022-11-29T19:56:15.633Z,-3.05
2022-11-29T20:01:22.781Z,-2.99
2022-11-29T20:06:26.815Z,-2.76
2022-11-29T20:11:29.212Z,-2.73
2022-11-29T20:16:32.948Z,-2.87
2022-11-29T20:21:35.190Z,-2.59
2022-11-29T20:26:39.103Z,-2.27
2022-11-29T20:31:50.148Z,-2.30
2022-11-29T20:37:15.639Z,-1.99
2022-11-29T20:42:44.365Z,-2.26
2022-11-29T20:47:54.273Z,-2.21
2022-11-29T20:53:13.143Z,-2.23
2022-11-29T20:58:15.391Z,-2.36
2022-11-29T21:03:20.119Z,-2.42
2022-11-29T21:08:24.823Z,-2.67
2022-11-29T21:13:27.298Z,-2.68
2022-11-29T21:18:32.357Z,-2.57
2022-11-29T21:23:51.936Z,-2.55
2022-11-29T21:29:04.577Z,-2.44
2022-11-29T21:34:08.737Z,-2.36
2022-11-29T21:39:14.751Z,-2.44
2022-11-29T21:44:16.724Z,-2.54
2022-11-29T21:49:19.996Z,-2.59
2022-11-29T21:54:21.905Z,-2.47
2022-11-29T21:59:27.969Z,-2.36
2022-11-29T22:04:31.262Z,-2.28
2022-11-29T22:09:33.249Z,-2.44
2022-11-29T22:14:35.191Z,-2.74
2022-11-29T22:19:39.412Z,-2.68
2022-11-29T22:24:41.391Z,-2.83
2022-11-29T22:29:43.435Z,-2.59
2022-11-29T22:34:46.984Z,-2.51
2022-11-29T22:39:49.376Z,-2.58
2022-11-29T22:44:51.778Z,-2.52
2022-11-29T22:49:55.057Z,-2.36
2022-11-29T22:55:02.902Z,-2.52
2022-11-29T23:00:08.000Z,-2.71
2022-11-29T23:05:11.283Z,-2.54
2022-11-29T23:10:13.205Z,-2.61
2022-11-29T23:15:15.335Z,-2.61
2022-11-29T23:20:18.607Z,-2.65
2022-11-29T23:25:20.503Z,-2.40
2022-11-29T23:30:22.449Z,-2.32
2022-11-29T23:35:25.768Z,-2.35
2022-11-29T23:40:27.784Z,-2.45
2022-11-29T23:45:29.736Z,-2.46
2022-11-29T23:50:33.227Z,-2.25
2022-11-29T23:55:35.165Z,-2.51
